Time;durP1;ratioP1;P1;durP2;ratioP2;P2;SDS_P1;SDS_P2;PMS_P1;PMS_P2;Temp;Humidity;BMP_temperature;BMP_pressure;BME280_temperature;BME280_humidity;BME280_pressure;Samples;Min_cycle;Max_cycle;Signal;HPM_P1;HPM_P2
2021/05/06 00:06:31;;;;;;;4.73;1.10;;;8.60;1.00;;;;;;5087142;28;20446;-63
2021/05/06 00:33:02;;;;;;;2.10;1.80;;;8.50;1.00;;;;;;5087896;28;20448;-63
2021/05/06 00:35:30;;;;;;;2.43;1.93;;;8.40;1.00;;;;;;5091836;28;20951;-63
2021/05/06 00:38:04;;;;;;;5.70;1.80;;;8.30;1.00;;;;;;5077951;28;20477;-63
2021/05/06 00:41:07;;;;;;;6.10;2.10;;;8.30;1.00;;;;;;5085995;28;20468;-63
2021/05/06 00:54:26;;;;;;;2.00;1.63;;;8.10;1.00;;;;;;5084176;28;20428;-63
2021/05/06 00:57:17;;;;;;;2.23;2.07;;;8.10;1.00;;;;;;5083144;28;20446;-64
2021/05/06 01:02:42;;;;;;;3.03;2.07;;;7.90;1.00;;;;;;5075606;28;20935;-63
2021/05/06 01:05:15;;;;;;;3.83;2.00;;;8.20;1.00;;;;;;5086777;28;20474;-63
2021/05/06 01:07:54;;;;;;;4.20;2.37;;;8.10;1.00;;;;;;5082220;28;20522;-63
2021/05/06 01:12:48;;;;;;;3.60;2.47;;;8.10;1.00;;;;;;5085829;28;20440;-63
2021/05/06 01:15:15;;;;;;;2.00;1.90;;;8.20;1.00;;;;;;5084227;28;20915;-63
2021/05/06 01:17:41;;;;;;;2.20;2.10;;;8.20;1.00;;;;;;5081629;28;20180;-63
2021/05/06 01:20:08;;;;;;;2.50;2.30;;;8.20;1.00;;;;;;5073087;28;20448;-63
2021/05/06 01:22:34;;;;;;;4.03;2.13;;;8.20;1.00;;;;;;5082307;28;20183;-63
2021/05/06 01:25:00;;;;;;;4.90;2.20;;;8.20;1.00;;;;;;5081986;28;20444;-63
2021/05/06 01:30:01;;;;;;;2.60;2.40;;;8.10;1.00;;;;;;5082706;28;21082;-64
2021/05/06 01:32:38;;;;;;;2.50;2.07;;;8.10;1.00;;;;;;5077490;28;20440;-64
2021/05/06 01:35:08;;;;;;;1.70;1.60;;;8.10;1.00;;;;;;5088088;28;20457;-64
2021/05/06 01:42:53;;;;;;;2.67;2.00;;;8.20;1.00;;;;;;5081430;28;20502;-64
2021/05/06 01:58:36;;;;;;;2.80;2.23;;;8.30;1.00;;;;;;5077738;28;20434;-64
2021/05/06 02:01:06;;;;;;;2.43;2.23;;;8.30;1.00;;;;;;5079820;28;20445;-63
2021/05/06 02:03:33;;;;;;;2.50;2.30;;;8.30;1.00;;;;;;5085747;28;20445;-64
2021/05/06 02:05:59;;;;;;;3.03;2.33;;;8.20;1.00;;;;;;5082302;28;20450;-63
2021/05/06 02:08:25;;;;;;;3.70;2.20;;;8.30;1.00;;;;;;5082231;28;20472;-63
2021/05/06 02:10:54;;;;;;;3.17;1.97;;;8.20;1.00;;;;;;5080946;28;20764;-63
2021/05/06 02:13:20;;;;;;;3.00;2.70;;;8.20;1.00;;;;;;5080016;28;20497;-63
2021/05/06 02:16:01;;;;;;;2.03;1.90;;;8.10;1.00;;;;;;5079137;28;20434;-63
2021/05/06 02:18:28;;;;;;;2.80;2.60;;;8.20;1.00;;;;;;5082957;28;20183;-63
2021/05/06 02:20:54;;;;;;;3.33;2.30;;;8.20;1.00;;;;;;5082228;28;20446;-62
2021/05/06 02:23:20;;;;;;;12.97;8.37;;;8.10;1.00;;;;;;5079976;28;20448;-62
2021/05/06 02:25:46;;;;;;;2.30;2.10;;;8.10;1.00;;;;;;5062910;28;20184;-62
2021/05/06 02:28:12;;;;;;;2.80;2.60;;;8.10;1.00;;;;;;5083415;28;20465;-63
2021/05/06 02:30:39;;;;;;;2.40;2.20;;;8.10;1.00;;;;;;5078894;28;20477;-63
2021/05/06 02:33:07;;;;;;;2.53;2.33;;;8.00;1.00;;;;;;5076008;28;20489;-63
2021/05/06 02:35:34;;;;;;;3.03;2.60;;;8.20;1.00;;;;;;5084406;28;20535;-63
2021/05/06 02:38:00;;;;;;;3.83;3.40;;;8.20;1.00;;;;;;5078372;28;20445;-63
2021/05/06 02:40:25;;;;;;;2.30;2.10;;;8.30;1.00;;;;;;5082458;28;20453;-64
2021/05/06 02:42:51;;;;;;;2.57;2.37;;;8.30;1.00;;;;;;5081645;28;20210;-63
2021/05/06 02:45:17;;;;;;;3.00;2.60;;;8.40;1.00;;;;;;5086482;28;20691;-63
2021/05/06 02:47:42;;;;;;;4.33;2.60;;;8.40;1.00;;;;;;5060096;28;20214;-63
2021/05/06 02:50:14;;;;;;;4.73;2.77;;;8.40;1.00;;;;;;5083063;28;20438;-63
2021/05/06 02:52:49;;;;;;;2.73;2.50;;;8.40;1.00;;;;;;5088207;28;20251;-63
2021/05/06 03:02:57;;;;;;;2.70;2.50;;;8.30;1.00;;;;;;5077583;28;20444;-63
2021/05/06 03:05:27;;;;;;;2.63;2.43;;;8.20;1.00;;;;;;5087506;28;20441;-64
2021/05/06 03:08:03;;;;;;;2.40;2.20;;;8.10;1.00;;;;;;5081270;28;20461;-63
2021/05/06 03:13:42;;;;;;;4.70;3.10;;;8.10;1.00;;;;;;5084268;28;20428;-63
2021/05/06 03:22:42;;;;;;;3.00;2.43;;;7.90;1.00;;;;;;5077332;28;20499;-63
2021/05/06 03:24:27;;;;;;;2.77;2.57;;;8.00;1.00;;;;;;5083037;28;20442;-63
2021/05/06 03:26:54;;;;;;;3.07;2.77;;;7.90;1.00;;;;;;5081885;28;20832;-64
2021/05/06 03:29:36;;;;;;;4.30;3.10;;;8.00;1.00;;;;;;5076667;28;20465;-63
2021/05/06 03:34:53;;;;;;;3.60;3.30;;;7.80;1.00;;;;;;5088189;28;20440;-63
2021/05/06 03:48:38;;;;;;;4.33;3.60;;;7.90;1.00;;;;;;5081528;28;20472;-64
2021/05/06 04:16:09;;;;;;;3.73;3.33;;;8.00;1.00;;;;;;5069895;28;20434;-64
2021/05/06 04:18:30;;;;;;;2.70;2.50;;;7.90;1.00;;;;;;5076389;28;20460;-64
2021/05/06 04:37:22;;;;;;;4.33;3.13;;;8.40;1.00;;;;;;5075942;28;20486;-62
2021/05/06 04:39:51;;;;;;;4.90;3.60;;;8.30;1.00;;;;;;5077291;28;20859;-62
2021/05/06 04:56:20;;;;;;;3.17;2.87;;;8.70;1.00;;;;;;5038562;28;20490;-62
2021/05/06 05:06:37;;;;;;;3.33;2.87;;;9.00;1.00;;;;;;5080833;28;20442;-60
2021/05/06 05:20:18;;;;;;;3.07;2.87;;;9.40;1.00;;;;;;5078869;28;20533;-62
2021/05/06 05:25:10;;;;;;;3.87;2.70;;;9.70;1.00;;;;;;5089135;28;20473;-62
2021/05/06 05:27:36;;;;;;;3.53;2.77;;;9.70;1.00;;;;;;5077552;28;20471;-62
2021/05/06 05:30:01;;;;;;;7.53;2.80;;;9.60;1.00;;;;;;5078277;28;20477;-63
2021/05/06 05:32:27;;;;;;;5.00;3.10;;;9.50;1.00;;;;;;5084170;28;20186;-62
2021/05/06 05:35:02;;;;;;;3.40;2.90;;;9.50;1.00;;;;;;5084018;28;20208;-62
2021/05/06 05:37:33;;;;;;;3.53;2.90;;;9.50;1.00;;;;;;5083051;28;20273;-62
2021/05/06 05:40:23;;;;;;;5.00;3.10;;;10.00;1.00;;;;;;5086155;28;20548;-61
2021/05/06 05:43:02;;;;;;;3.10;2.83;;;9.60;1.00;;;;;;5076898;28;20538;-62
2021/05/06 05:56:24;;;;;;;3.10;2.43;;;10.20;1.00;;;;;;5084531;28;20445;-63
2021/05/06 05:58:51;;;;;;;3.90;3.60;;;10.40;1.00;;;;;;5084649;28;20458;-63
2021/05/06 06:01:19;;;;;;;3.90;2.60;;;10.60;1.00;;;;;;5074410;28;20187;-62
2021/05/06 06:03:45;;;;;;;3.40;2.43;;;10.70;1.00;;;;;;5085864;28;20434;-62
2021/05/06 06:06:11;;;;;;;3.30;2.33;;;10.70;1.00;;;;;;5078589;28;20934;-62
2021/05/06 06:08:38;;;;;;;3.13;2.63;;;10.40;1.00;;;;;;5084226;28;20199;-62
2021/05/06 06:11:04;;;;;;;2.27;2.17;;;10.50;1.00;;;;;;5079435;28;20186;-62
2021/05/06 06:13:30;;;;;;;3.00;2.33;;;10.60;1.00;;;;;;5080683;28;20433;-61
2021/05/06 06:16:00;;;;;;;2.37;2.17;;;10.70;1.00;;;;;;5085413;28;20447;-61
2021/05/06 06:21:08;;;;;;;3.30;2.90;;;11.10;1.00;;;;;;5080567;28;20491;-61
2021/05/06 06:23:34;;;;;;;2.73;2.53;;;11.20;1.00;;;;;;5078609;28;20941;-63
2021/05/06 06:25:59;;;;;;;5.17;2.40;;;11.20;1.00;;;;;;5082322;28;20446;-62
2021/05/06 06:28:27;;;;;;;3.17;2.77;;;11.30;1.00;;;;;;5088081;28;20209;-62
2021/05/06 06:30:55;;;;;;;3.07;2.40;;;11.50;1.00;;;;;;5073338;28;20242;-62
2021/05/06 06:33:20;;;;;;;2.40;2.30;;;11.60;1.00;;;;;;5080955;28;20432;-62
2021/05/06 06:35:47;;;;;;;3.80;2.50;;;11.60;1.00;;;;;;5077756;28;20554;-61
2021/05/06 06:38:13;;;;;;;4.00;2.13;;;11.60;1.00;;;;;;5079788;28;20286;-61
2021/05/06 06:40:38;;;;;;;2.47;2.27;;;11.70;1.00;;;;;;5084613;28;20534;-61
2021/05/06 06:43:04;;;;;;;4.00;2.10;;;11.70;1.00;;;;;;5080707;28;20193;-62
2021/05/06 06:45:30;;;;;;;4.00;2.30;;;11.70;1.00;;;;;;5082519;28;20648;-61
2021/05/06 06:47:56;;;;;;;3.00;2.60;;;11.80;1.00;;;;;;5082383;28;20214;-61
2021/05/06 06:50:22;;;;;;;2.60;2.40;;;11.40;1.00;;;;;;5084576;28;20637;-62
2021/05/06 06:52:48;;;;;;;2.57;2.37;;;11.20;1.00;;;;;;5082832;28;20248;-61
2021/05/06 06:55:13;;;;;;;2.60;2.40;;;11.10;1.00;;;;;;5078353;28;20442;-61
2021/05/06 06:57:39;;;;;;;2.50;2.30;;;11.30;1.00;;;;;;5082054;28;20542;-62
2021/05/06 07:00:07;;;;;;;2.67;2.47;;;11.50;1.00;;;;;;5079783;28;20198;-61
2021/05/06 07:02:32;;;;;;;3.40;2.40;;;11.50;1.00;;;;;;5083220;28;20254;-62
2021/05/06 07:04:58;;;;;;;3.57;2.50;;;11.50;1.00;;;;;;5085630;28;20527;-60
2021/05/06 07:07:24;;;;;;;3.20;2.30;;;11.70;1.00;;;;;;5077917;28;20293;-61
2021/05/06 07:09:49;;;;;;;2.67;2.47;;;11.80;1.00;;;;;;5088714;28;20248;-62
2021/05/06 07:12:16;;;;;;;5.20;2.83;;;11.90;1.00;;;;;;5078762;28;20437;-63
2021/05/06 07:14:42;;;;;;;2.20;2.00;;;11.80;1.00;;;;;;5084644;28;20187;-65
2021/05/06 07:17:08;;;;;;;3.50;2.23;;;12.00;1.00;;;;;;5077292;28;20440;-63
2021/05/06 07:19:36;;;;;;;3.40;2.40;;;12.40;1.00;;;;;;5081948;28;20787;-61
2021/05/06 07:22:02;;;;;;;3.10;2.43;;;12.30;1.00;;;;;;5079596;28;20190;-61
2021/05/06 07:24:28;;;;;;;2.47;1.83;;;12.00;1.00;;;;;;5083649;28;20535;-62
2021/05/06 07:26:54;;;;;;;2.60;2.40;;;;;;;;;;5080886;28;20552;-62
2021/05/06 07:29:21;;;;;;;3.03;2.83;;;11.50;1.00;;;;;;5075809;28;20240;-63
2021/05/06 07:31:50;;;;;;;2.67;2.20;;;11.70;1.00;;;;;;5082250;28;20439;-62
2021/05/06 07:34:15;;;;;;;2.00;1.80;;;11.90;1.00;;;;;;5079614;28;20440;-65
2021/05/06 07:36:41;;;;;;;3.20;2.27;;;12.10;1.00;;;;;;5089121;28;21001;-62
2021/05/06 07:39:07;;;;;;;2.30;2.10;;;12.40;1.00;;;;;;5085144;28;20273;-61
2021/05/06 07:41:33;;;;;;;2.10;1.90;;;12.60;1.00;;;;;;5078935;28;20186;-61
2021/05/06 07:43:58;;;;;;;3.00;1.90;;;12.40;1.00;;;;;;5080410;28;20202;-62
2021/05/06 07:46:24;;;;;;;4.50;3.43;;;12.40;1.00;;;;;;5079995;28;20956;-62
2021/05/06 07:48:54;;;;;;;1.73;1.63;;;12.70;1.00;;;;;;5080671;28;20301;-62
2021/05/06 07:51:20;;;;;;;2.03;1.83;;;12.90;1.00;;;;;;5083462;28;20968;-62
2021/05/06 07:53:52;;;;;;;1.73;1.50;;;12.10;1.00;;;;;;5079593;28;20953;-62
2021/05/06 07:56:19;;;;;;;5.50;2.10;;;13.00;1.00;;;;;;5078377;28;20399;-62
2021/05/06 07:58:44;;;;;;;2.53;1.77;;;12.90;1.00;;;;;;5079584;28;20537;-62
2021/05/06 08:01:10;;;;;;;2.57;2.30;;;13.00;1.00;;;;;;5070848;28;20870;-63
2021/05/06 08:03:37;;;;;;;4.13;3.00;;;13.40;1.00;;;;;;5075828;28;20194;-61
2021/05/06 08:06:02;;;;;;;2.83;1.80;;;13.40;1.00;;;;;;5076591;28;20445;-61
2021/05/06 08:08:28;;;;;;;1.90;1.80;;;13.40;1.00;;;;;;5074922;28;20480;-60
2021/05/06 08:10:56;;;;;;;2.30;1.80;;;12.60;1.00;;;;;;5085722;28;20540;-60
2021/05/06 08:13:23;;;;;;;1.67;1.57;;;12.60;1.00;;;;;;5077934;28;20233;-60
2021/05/06 08:15:51;;;;;;;2.17;1.63;;;12.50;1.00;;;;;;5074117;28;20494;-60
2021/05/06 08:18:16;;;;;;;1.93;1.60;;;12.40;1.00;;;;;;5072889;28;20440;-60
2021/05/06 08:20:42;;;;;;;2.93;1.80;;;12.50;1.00;;;;;;5087304;28;20429;-60
2021/05/06 08:23:10;;;;;;;1.73;1.60;;;12.60;1.00;;;;;;5074921;28;20183;-60
2021/05/06 08:25:36;;;;;;;0.90;0.90;;;12.80;1.00;;;;;;5079687;28;20489;-60
2021/05/06 08:28:03;;;;;;;1.93;1.73;;;13.10;1.00;;;;;;5089032;28;20461;-60
2021/05/06 08:30:29;;;;;;;2.83;1.40;;;13.20;1.00;;;;;;5079667;28;20953;-60
2021/05/06 08:32:55;;;;;;;1.43;1.30;;;13.30;1.00;;;;;;5079189;28;20452;-60
2021/05/06 08:35:20;;;;;;;1.97;1.40;;;13.40;1.00;;;;;;5075057;28;20179;-61
2021/05/06 08:37:46;;;;;;;1.67;1.57;;;15.50;1.00;;;;;;5081563;28;20802;-61
2021/05/06 08:40:12;;;;;;;1.40;1.30;;;13.00;1.00;;;;;;5078257;28;20176;-62
2021/05/06 08:42:39;;;;;;;2.90;1.60;;;12.60;1.00;;;;;;5090253;28;20182;-61
2021/05/06 08:45:06;;;;;;;2.27;1.50;;;12.40;1.00;;;;;;5083401;28;20440;-61
2021/05/06 08:47:32;;;;;;;1.50;1.40;;;12.50;1.00;;;;;;5088769;28;20457;-61
2021/05/06 08:49:59;;;;;;;1.87;1.67;;;12.60;1.00;;;;;;5091907;28;20433;-61
2021/05/06 08:52:26;;;;;;;2.20;1.27;;;13.60;1.00;;;;;;5095375;28;20435;-61
2021/05/06 08:54:53;;;;;;;1.93;1.50;;;13.50;1.00;;;;;;5075610;28;20483;-61
2021/05/06 08:57:24;;;;;;;2.33;1.63;;;13.60;1.00;;;;;;5082590;28;20443;-61
2021/05/06 08:59:50;;;;;;;2.70;1.40;;;13.60;1.00;;;;;;5084998;28;20436;-61
2021/05/06 09:02:16;;;;;;;1.43;1.30;;;13.90;1.00;;;;;;5074087;28;20529;-60
2021/05/06 09:04:42;;;;;;;1.50;1.13;;;13.40;1.00;;;;;;5082598;28;20890;-61
2021/05/06 09:07:09;;;;;;;4.33;2.13;;;13.60;1.00;;;;;;5084713;28;20896;-61
2021/05/06 09:09:36;;;;;;;1.53;1.43;;;14.30;1.00;;;;;;5081429;28;20437;-62
2021/05/06 09:12:08;;;;;;;1.87;1.40;;;14.90;1.00;;;;;;5095050;28;20793;-61
2021/05/06 09:14:46;;;;;;;1.63;1.33;;;15.10;1.00;;;;;;5095641;28;20432;-63
2021/05/06 09:17:32;;;;;;;1.60;1.50;;;15.00;1.00;;;;;;5093746;28;20781;-63
2021/05/06 09:20:11;;;;;;;1.80;1.53;;;14.80;1.00;;;;;;5076380;28;20425;-63
2021/05/06 09:22:44;;;;;;;2.00;1.50;;;14.30;1.00;;;;;;5075600;28;20434;-62
2021/05/06 09:25:29;;;;;;;1.80;1.37;;;13.60;1.00;;;;;;5083122;28;20839;-62
2021/05/06 09:28:04;;;;;;;2.07;1.57;;;13.70;1.00;;;;;;5077825;28;20496;-63
2021/05/06 09:30:32;;;;;;;2.30;2.10;;;13.50;1.00;;;;;;5085494;28;20468;-60
2021/05/06 09:33:06;;;;;;;1.87;1.77;;;13.60;1.00;;;;;;5078553;28;20483;-63
2021/05/06 09:35:47;;;;;;;2.07;1.70;;;13.90;1.00;;;;;;5077965;28;20440;-62
2021/05/06 09:38:51;;;;;;;2.77;1.60;;;14.50;1.00;;;;;;5082097;28;20526;-63
2021/05/06 09:41:20;;;;;;;1.97;1.70;;;15.00;1.00;;;;;;4996540;28;20795;-64
2021/05/06 09:43:47;;;;;;;1.93;1.23;;;14.90;1.00;;;;;;4999500;28;20601;-63
2021/05/06 09:46:31;;;;;;;2.90;1.13;;;14.50;1.00;;;;;;5034018;28;20437;-63
2021/05/06 09:49:10;;;;;;;1.27;1.00;;;14.30;1.00;;;;;;5081639;28;20550;-62
2021/05/06 09:51:38;;;;;;;2.30;1.60;;;14.00;1.00;;;;;;5080044;28;20508;-63
2021/05/06 09:54:10;;;;;;;2.73;1.50;;;13.50;1.00;;;;;;5084469;28;20441;-63
2021/05/06 09:56:38;;;;;;;2.57;1.87;;;13.50;1.00;;;;;;5078660;28;20445;-63
2021/05/06 09:59:04;;;;;;;1.60;1.50;;;13.50;1.00;;;;;;5090131;28;20436;-63
2021/05/06 10:01:37;;;;;;;2.40;1.90;;;13.40;1.00;;;;;;5090098;28;20433;-63
2021/05/06 10:04:29;;;;;;;1.90;1.70;;;13.70;1.00;;;;;;5085087;28;20449;-64
2021/05/06 10:07:14;;;;;;;2.30;1.97;;;13.60;1.00;;;;;;5085841;28;20447;-64
2021/05/06 10:09:53;;;;;;;2.10;2.00;;;13.60;1.00;;;;;;5069538;28;20489;-63
2021/05/06 10:12:19;;;;;;;2.63;1.80;;;14.20;1.00;;;;;;5076537;28;20442;-64
2021/05/06 10:14:48;;;;;;;1.73;1.50;;;14.60;1.00;;;;;;5074122;28;20834;-63
2021/05/06 10:17:15;;;;;;;4.03;1.80;;;14.70;1.00;;;;;;5091788;28;20950;-63
2021/05/06 10:19:41;;;;;;;5.03;1.57;;;14.60;1.00;;;;;;5071794;28;20442;-63
2021/05/06 10:22:11;;;;;;;1.87;1.70;;;14.60;1.00;;;;;;5079166;28;20841;-64
2021/05/06 10:24:43;;;;;;;6.40;3.20;;;14.80;1.00;;;;;;5072956;28;20956;-63
2021/05/06 10:27:10;;;;;;;1.93;1.70;;;15.40;1.00;;;;;;5077880;28;20532;-63
2021/05/06 10:29:36;;;;;;;2.30;1.70;;;15.20;1.00;;;;;;5076129;28;20476;-63
2021/05/06 10:32:02;;;;;;;1.93;1.83;;;15.00;1.00;;;;;;5076101;28;20787;-63
2021/05/06 10:34:32;;;;;;;3.67;1.90;;;14.60;1.00;;;;;;5085269;28;20927;-63
2021/05/06 10:36:58;;;;;;;2.63;2.43;;;14.40;1.00;;;;;;5087220;28;20453;-63
2021/05/06 10:39:39;;;;;;;2.93;2.13;;;14.10;1.00;;;;;;5078675;28;20436;-62
2021/05/06 10:42:27;;;;;;;2.17;1.97;;;14.10;1.00;;;;;;5089548;28;20919;-61
2021/05/06 10:44:55;;;;;;;5.80;2.50;;;13.80;1.00;;;;;;5073332;28;20433;-60
2021/05/06 10:47:38;;;;;;;3.30;2.47;;;13.90;1.00;;;;;;5066606;28;20902;-64
2021/05/06 10:50:17;;;;;;;3.23;2.43;;;13.90;1.00;;;;;;5080152;28;20782;-61
2021/05/06 10:52:55;;;;;;;4.87;2.10;;;13.80;1.00;;;;;;5070395;28;20992;-61
2021/05/06 10:55:44;;;;;;;3.77;2.13;;;13.90;1.00;;;;;;5076861;28;20610;-62
2021/05/06 10:58:26;;;;;;;2.37;1.90;;;14.10;1.00;;;;;;5082929;28;20467;-63
2021/05/06 11:01:09;;;;;;;1.70;1.60;;;14.30;1.00;;;;;;5074766;28;20433;-63
2021/05/06 11:03:35;;;;;;;3.17;2.00;;;14.40;1.00;;;;;;5071381;28;20445;-61
2021/05/06 11:06:01;;;;;;;2.30;1.90;;;14.50;1.00;;;;;;5075172;28;20452;-63
2021/05/06 11:08:31;;;;;;;4.47;2.13;;;14.70;1.00;;;;;;5086850;28;20790;-63
2021/05/06 11:10:57;;;;;;;2.80;1.87;;;14.30;1.00;;;;;;5082299;28;20536;-63
2021/05/06 11:13:28;;;;;;;2.23;1.60;;;14.60;1.00;;;;;;5090220;28;20433;-62
2021/05/06 11:16:16;;;;;;;5.33;1.90;;;14.50;1.00;;;;;;5081872;28;20182;-61
2021/05/06 11:18:43;;;;;;;2.53;2.10;;;14.20;1.00;;;;;;5074110;28;20794;-60
2021/05/06 11:21:10;;;;;;;3.80;2.07;;;14.20;1.00;;;;;;5069500;28;20477;-61
2021/05/06 11:23:36;;;;;;;3.83;1.93;;;13.90;1.00;;;;;;5074988;28;20509;-62
2021/05/06 11:26:05;;;;;;;2.90;2.30;;;14.10;1.00;;;;;;5077893;28;20433;-62
2021/05/06 11:28:30;;;;;;;2.00;1.70;;;14.30;1.00;;;;;;5082169;28;21093;-62
2021/05/06 11:30:57;;;;;;;3.30;1.67;;;14.50;1.00;;;;;;5073961;28;20472;-62
2021/05/06 11:33:23;;;;;;;1.90;1.70;;;14.90;1.00;;;;;;5082381;28;20266;-61
2021/05/06 11:35:59;;;;;;;2.53;2.07;;;14.90;1.00;;;;;;5080065;28;20479;-63
2021/05/06 11:41:05;;;;;;;2.47;1.53;;;14.70;1.00;;;;;;5070453;28;20508;-63
2021/05/06 11:43:31;;;;;;;2.60;1.67;;;14.70;1.00;;;;;;5071832;28;20541;-60
2021/05/06 11:46:16;;;;;;;2.20;1.60;;;15.40;1.00;;;;;;5074110;28;20452;-63
2021/05/06 11:48:43;;;;;;;2.90;1.40;;;15.20;1.00;;;;;;5076455;28;20488;-62
2021/05/06 11:51:09;;;;;;;4.10;1.73;;;15.60;1.00;;;;;;5078354;28;20529;-62
2021/05/06 11:53:36;;;;;;;1.50;1.40;;;15.60;1.00;;;;;;5077103;28;20924;-63
2021/05/06 11:56:14;;;;;;;1.60;1.37;;;15.50;1.00;;;;;;5073660;28;20441;-64
2021/05/06 11:58:42;;;;;;;1.80;1.67;;;15.20;1.00;;;;;;5080223;28;20472;-63
2021/05/06 12:01:09;;;;;;;2.23;1.40;;;15.20;1.00;;;;;;5070321;28;20930;-63
2021/05/06 12:03:40;;;;;;;3.93;1.50;;;15.40;1.00;;;;;;5069084;28;20513;-61
2021/05/06 12:06:07;;;;;;;1.93;1.60;;;15.60;1.00;;;;;;5070614;28;20490;-62
2021/05/06 12:08:43;;;;;;;1.50;1.40;;;15.60;1.00;;;;;;5073555;28;20465;-61
2021/05/06 12:11:13;;;;;;;2.70;1.70;;;15.90;1.00;;;;;;5081212;28;20838;-62
2021/05/06 12:13:43;;;;;;;2.43;1.50;;;15.60;1.00;;;;;;5074861;28;20437;-61
2021/05/06 12:16:20;;;;;;;3.67;1.77;;;15.70;1.00;;;;;;5068693;28;20441;-60
2021/05/06 12:19:01;;;;;;;4.40;2.10;;;15.70;1.00;;;;;;5079229;28;20764;-63
2021/05/06 12:21:35;;;;;;;2.57;2.03;;;15.40;1.00;;;;;;5078008;28;20445;-63
2021/05/06 12:24:01;;;;;;;2.53;1.50;;;15.30;1.00;;;;;;5072386;28;20439;-64
2021/05/06 12:26:30;;;;;;;2.30;1.70;;;15.10;1.00;;;;;;5076554;28;20440;-64
2021/05/06 12:28:57;;;;;;;2.30;2.10;;;14.80;1.00;;;;;;5055191;28;608068;-63
2021/05/06 12:31:23;;;;;;;1.83;1.73;;;14.70;1.00;;;;;;5069565;28;20796;-63
2021/05/06 12:33:49;;;;;;;3.30;1.70;;;14.70;1.00;;;;;;5066897;28;20454;-63
2021/05/06 12:36:15;;;;;;;1.57;1.30;;;14.60;1.00;;;;;;5077960;28;20543;-63
2021/05/06 12:38:42;;;;;;;3.43;1.70;;;14.40;1.00;;;;;;5079049;28;20457;-63
2021/05/06 12:41:10;;;;;;;2.40;1.83;;;14.60;1.00;;;;;;5078961;28;20245;-63
2021/05/06 12:43:48;;;;;;;3.80;2.10;;;14.70;1.00;;;;;;5080294;28;20445;-63
2021/05/06 12:46:13;;;;;;;2.90;1.80;;;14.60;1.00;;;;;;5066763;28;20429;-63
2021/05/06 12:48:43;;;;;;;1.60;1.50;;;14.80;1.00;;;;;;5070818;28;20800;-63
2021/05/06 12:51:12;;;;;;;2.07;1.47;;;15.00;1.00;;;;;;5072045;28;20183;-64
2021/05/06 12:54:04;;;;;;;2.07;1.43;;;15.00;1.00;;;;;;5084433;28;20954;-65
2021/05/06 12:56:38;;;;;;;2.30;1.40;;;15.30;1.00;;;;;;5069310;28;20439;-64
2021/05/06 12:59:23;;;;;;;2.03;1.53;;;15.40;1.00;;;;;;5079743;28;20429;-63
2021/05/06 13:01:50;;;;;;;2.20;1.40;;;15.10;1.00;;;;;;5080089;28;20779;-64
2021/05/06 13:04:16;;;;;;;2.50;1.77;;;14.80;1.00;;;;;;5086127;28;20568;-63
2021/05/06 13:06:42;;;;;;;4.40;1.73;;;14.50;1.00;;;;;;5064196;28;20437;-64
2021/05/06 13:09:13;;;;;;;1.93;1.30;;;14.50;1.00;;;;;;5073080;28;20476;-64
2021/05/06 13:11:38;;;;;;;1.90;1.50;;;14.60;1.00;;;;;;5077652;28;20188;-63
2021/05/06 13:14:05;;;;;;;1.90;1.80;;;14.50;1.00;;;;;;5076543;28;21007;-64
2021/05/06 13:16:51;;;;;;;2.90;1.50;;;14.50;1.00;;;;;;5080099;28;20486;-63
2021/05/06 13:19:24;;;;;;;2.17;1.73;;;14.50;1.00;;;;;;5076368;28;20450;-63
2021/05/06 13:21:56;;;;;;;4.53;1.67;;;14.40;1.00;;;;;;5081155;28;20445;-63
2021/05/06 13:24:21;;;;;;;3.77;1.43;;;14.50;1.00;;;;;;5081240;28;20449;-65
2021/05/06 13:26:48;;;;;;;3.43;1.67;;;14.40;1.00;;;;;;5079492;28;21019;-63
2021/05/06 13:29:16;;;;;;;2.40;1.50;;;14.30;1.00;;;;;;5079926;28;20317;-63
2021/05/06 13:31:49;;;;;;;2.20;1.30;;;14.30;1.00;;;;;;5081531;28;20834;-63
2021/05/06 13:34:24;;;;;;;3.43;1.53;;;14.30;1.00;;;;;;5090481;28;20441;-63
2021/05/06 13:36:49;;;;;;;2.03;1.13;;;14.40;1.00;;;;;;5079378;28;20491;-63
2021/05/06 13:39:16;;;;;;;3.30;1.33;;;14.50;1.00;;;;;;5074874;28;20445;-64
2021/05/06 13:41:47;;;;;;;1.33;1.10;;;14.50;1.00;;;;;;5070532;28;20211;-63
2021/05/06 13:44:15;;;;;;;1.20;1.10;;;14.70;1.00;;;;;;5084500;28;20446;-64
2021/05/06 13:46:55;;;;;;;1.30;1.20;;;15.00;1.00;;;;;;5073491;28;20481;-64
2021/05/06 13:49:26;;;;;;;1.17;1.07;;;15.00;1.00;;;;;;5070746;28;20766;-64
2021/05/06 13:51:53;;;;;;;2.03;1.37;;;15.10;1.00;;;;;;5078464;28;20444;-63
2021/05/06 13:54:19;;;;;;;1.60;1.13;;;14.90;1.00;;;;;;5074716;28;20436;-63
2021/05/06 13:56:45;;;;;;;2.20;1.47;;;14.80;1.00;;;;;;5073329;28;20473;-63
2021/05/06 13:59:11;;;;;;;1.10;1.00;;;14.80;1.00;;;;;;5074477;28;20476;-62
2021/05/06 14:01:37;;;;;;;3.43;2.27;;;14.70;1.00;;;;;;5072716;28;20195;-63
2021/05/06 14:04:03;;;;;;;1.40;1.30;;;14.70;1.00;;;;;;5072920;28;20506;-63
2021/05/06 14:06:29;;;;;;;2.40;1.50;;;14.60;1.00;;;;;;5078328;28;20181;-64
2021/05/06 14:08:55;;;;;;;1.73;1.27;;;14.40;1.00;;;;;;5080458;28;20461;-64
2021/05/06 14:11:21;;;;;;;3.53;1.40;;;14.30;1.00;;;;;;5079554;28;20672;-63
2021/05/06 14:13:47;;;;;;;1.30;1.20;;;14.30;1.00;;;;;;5072562;28;20466;-63
2021/05/06 14:16:13;;;;;;;1.37;1.27;;;14.30;1.00;;;;;;5072906;28;20184;-64
2021/05/06 14:18:39;;;;;;;1.47;1.17;;;14.20;1.00;;;;;;5074934;28;20859;-64
2021/05/06 14:21:06;;;;;;;1.93;1.30;;;14.20;1.00;;;;;;5075307;28;20657;-63
2021/05/06 14:23:37;;;;;;;1.83;1.57;;;13.90;1.00;;;;;;5077770;28;20194;-63
2021/05/06 14:26:03;;;;;;;2.93;1.20;;;13.70;1.00;;;;;;5090881;28;20469;-64
2021/05/06 14:28:29;;;;;;;1.40;1.30;;;13.60;1.00;;;;;;5083061;28;20465;-64
2021/05/06 14:30:54;;;;;;;1.30;1.20;;;13.70;1.00;;;;;;5078363;28;20222;-64
2021/05/06 14:33:20;;;;;;;2.13;1.50;;;13.90;1.00;;;;;;5078723;28;20750;-64
2021/05/06 14:35:45;;;;;;;1.33;1.07;;;14.10;1.00;;;;;;5083260;28;20184;-63
2021/05/06 14:38:11;;;;;;;2.27;1.40;;;14.30;1.00;;;;;;5074917;28;20190;-63
2021/05/06 14:40:38;;;;;;;2.53;1.40;;;14.70;1.00;;;;;;5088991;28;20658;-63
2021/05/06 14:43:05;;;;;;;2.17;1.40;;;15.00;1.00;;;;;;5077301;28;20180;-64
2021/05/06 14:45:31;;;;;;;1.60;1.30;;;15.00;1.00;;;;;;5082559;28;20477;-64
2021/05/06 14:47:56;;;;;;;1.70;1.17;;;15.00;1.00;;;;;;5088109;28;20976;-64
2021/05/06 14:50:22;;;;;;;3.83;2.90;;;15.00;1.00;;;;;;5084391;28;20269;-64
2021/05/06 14:52:51;;;;;;;1.73;1.10;;;15.10;1.00;;;;;;5086725;28;20179;-64
2021/05/06 14:55:17;;;;;;;1.33;0.80;;;15.20;1.00;;;;;;5074590;28;20210;-64
2021/05/06 14:57:42;;;;;;;2.70;1.20;;;15.30;1.00;;;;;;5088921;28;20441;-64
2021/05/06 15:00:09;;;;;;;1.63;1.10;;;15.50;1.00;;;;;;5084924;28;20244;-64
2021/05/06 15:02:35;;;;;;;1.27;0.93;;;15.70;1.00;;;;;;5079454;28;20183;-64
2021/05/06 15:05:01;;;;;;;4.73;1.23;;;15.80;1.00;;;;;;5086440;28;20441;-64
2021/05/06 15:07:26;;;;;;;1.57;1.10;;;15.90;1.00;;;;;;5075081;28;21036;-64
2021/05/06 15:09:52;;;;;;;7.37;1.10;;;16.30;1.00;;;;;;5078805;28;20192;-64
2021/05/06 15:12:18;;;;;;;1.10;1.00;;;16.80;1.00;;;;;;5087485;28;20179;-65
2021/05/06 15:14:43;;;;;;;2.50;1.33;;;17.60;1.00;;;;;;5073647;28;20189;-64
2021/05/06 15:17:09;;;;;;;2.13;1.07;;;18.20;1.00;;;;;;5092363;28;20186;-64
2021/05/06 15:19:34;;;;;;;0.97;0.80;;;18.20;1.00;;;;;;5084155;28;20246;-64
2021/05/06 15:22:00;;;;;;;1.10;0.70;;;17.40;1.00;;;;;;5080523;28;20265;-63
2021/05/06 15:24:27;;;;;;;0.50;0.50;;;16.70;1.00;;;;;;5078252;28;20175;-64
2021/05/06 15:26:52;;;;;;;0.87;0.83;;;16.10;1.00;;;;;;5078260;28;20450;-63
2021/05/06 15:29:18;;;;;;;2.20;1.90;;;14.90;1.00;;;;;;5080298;28;20482;-64
2021/05/06 15:31:43;;;;;;;1.50;1.40;;;14.80;1.00;;;;;;5077536;28;20179;-64
2021/05/06 15:34:10;;;;;;;1.30;1.20;;;14.70;1.00;;;;;;5072446;28;20182;-64
2021/05/06 15:36:36;;;;;;;1.27;0.97;;;14.70;1.00;;;;;;5081385;28;20249;-63
2021/05/06 15:39:04;;;;;;;1.10;1.00;;;14.90;1.00;;;;;;5084973;28;20803;-64
2021/05/06 15:41:30;;;;;;;1.80;1.13;;;15.30;1.00;;;;;;5078805;28;20202;-64
2021/05/06 15:43:56;;;;;;;1.70;0.80;;;15.30;1.00;;;;;;5079061;28;20475;-63
2021/05/06 15:46:21;;;;;;;1.30;0.97;;;15.50;1.00;;;;;;5069689;28;20183;-62
2021/05/06 15:48:47;;;;;;;1.37;1.00;;;15.70;1.00;;;;;;5090183;28;20973;-62
2021/05/06 15:51:13;;;;;;;3.00;1.03;;;15.70;1.00;;;;;;5072799;28;20182;-62
2021/05/06 15:53:39;;;;;;;2.53;1.10;;;15.50;1.00;;;;;;5078197;28;20175;-62
2021/05/06 15:56:05;;;;;;;1.90;0.77;;;15.20;1.00;;;;;;5085691;28;20483;-63
2021/05/06 15:58:34;;;;;;;2.10;1.10;;;15.10;1.00;;;;;;5075893;28;20651;-63
2021/05/06 16:01:00;;;;;;;1.23;1.13;;;14.90;1.00;;;;;;5082992;28;20956;-61
2021/05/06 16:03:28;;;;;;;1.50;1.07;;;14.80;1.00;;;;;;5074192;28;20464;-62
2021/05/06 16:05:54;;;;;;;1.10;0.90;;;14.70;1.00;;;;;;5078055;28;20442;-63
2021/05/06 16:08:23;;;;;;;1.40;1.30;;;14.60;1.00;;;;;;5077982;28;21159;-64
2021/05/06 16:10:50;;;;;;;1.20;1.10;;;14.60;1.00;;;;;;5083076;28;20436;-64
2021/05/06 16:13:20;;;;;;;1.00;0.90;;;14.60;1.00;;;;;;5075730;28;20480;-64
2021/05/06 16:15:48;;;;;;;1.73;1.63;;;14.60;1.00;;;;;;5074007;28;20434;-64
2021/05/06 16:18:15;;;;;;;1.30;1.20;;;14.50;1.00;;;;;;5080577;28;20468;-63
2021/05/06 16:20:40;;;;;;;1.83;1.53;;;14.30;1.00;;;;;;5070921;28;20449;-63